createdAt,value
2023-02-25T00:01:34.611Z,97508.91
2023-02-25T00:04:01.323Z,97516.81
2023-02-25T00:06:27.922Z,97513.28
2023-02-25T00:08:54.967Z,97511.53
2023-02-25T00:11:23.542Z,97507.31
2023-02-25T00:13:50.447Z,97506.47
2023-02-25T00:16:17.748Z,97502.22
2023-02-25T00:18:46.376Z,97498.09
2023-02-25T00:21:17.778Z,97498.19
2023-02-25T00:23:46.591Z,97493.00
2023-02-25T00:26:14.799Z,97498.94
2023-02-25T00:28:42.011Z,97497.78
2023-02-25T00:31:15.494Z,97498.44
2023-02-25T00:33:42.492Z,97494.91
2023-02-25T00:36:10.709Z,97501.31
2023-02-25T00:38:37.290Z,97507.69
2023-02-25T00:41:11.733Z,97502.94
2023-02-25T00:43:42.653Z,97498.59
2023-02-25T00:46:12.392Z,97496.13
2023-02-25T00:48:40.025Z,97500.06
2023-02-25T00:51:12.855Z,97501.13
2023-02-25T00:53:40.064Z,97484.41
2023-02-25T00:56:08.988Z,97477.13
2023-02-25T00:58:37.218Z,97500.06
2023-02-25T01:01:06.111Z,97501.63
2023-02-25T01:03:33.325Z,97502.16
2023-02-25T01:06:00.150Z,97490.44
2023-02-25T01:08:26.810Z,97502.94
2023-02-25T01:10:53.679Z,97500.16
2023-02-25T01:13:20.145Z,97508.59
2023-02-25T01:15:46.664Z,97510.75
2023-02-25T01:18:13.140Z,97530.47
2023-02-25T01:20:40.203Z,97523.19
2023-02-25T01:23:07.123Z,97534.13
2023-02-25T01:25:33.781Z,97525.56
2023-02-25T01:28:00.478Z,97532.50
2023-02-25T01:30:27.024Z,97535.13
2023-02-25T01:32:53.699Z,97537.06
2023-02-25T01:35:20.229Z,97533.50
2023-02-25T01:37:47.611Z,97540.06
2023-02-25T01:40:17.076Z,97531.47
2023-02-25T01:42:45.997Z,97535.44
2023-02-25T01:45:18.405Z,97538.06
2023-02-25T01:47:49.927Z,97538.88
2023-02-25T01:50:19.686Z,97544.59
2023-02-25T01:52:46.467Z,97533.72
2023-02-25T01:55:13.027Z,97516.03
2023-02-25T01:57:39.758Z,97522.19
2023-02-25T02:00:12.556Z,97521.25
2023-02-25T02:02:39.200Z,97526.66
2023-02-25T02:05:06.811Z,97524.41
2023-02-25T02:07:33.295Z,97522.19
2023-02-25T02:10:00.534Z,97512.03
2023-02-25T02:12:35.653Z,97501.41
2023-02-25T02:15:06.622Z,97501.97
2023-02-25T02:17:41.958Z,97503.50
2023-02-25T02:20:13.124Z,97492.81
2023-02-25T02:22:51.161Z,97471.78
2023-02-25T02:25:38.650Z,97476.97
2023-02-25T02:28:26.603Z,97487.97
2023-02-25T02:30:55.943Z,97492.41
2023-02-25T02:33:40.752Z,97496.94
2023-02-25T02:36:24.639Z,97503.41
2023-02-25T02:39:09.179Z,97514.31
2023-02-25T02:41:41.627Z,97512.84
2023-02-25T02:44:26.983Z,97517.00
2023-02-25T02:47:02.801Z,97522.13
2023-02-25T02:50:08.051Z,97538.47
2023-02-25T02:52:40.922Z,97540.97
2023-02-25T02:55:22.284Z,97544.81
2023-02-25T02:57:53.872Z,97541.38
2023-02-25T03:00:25.946Z,97542.94
2023-02-25T03:03:02.590Z,97550.78
2023-02-25T03:05:31.522Z,97557.91
2023-02-25T03:08:11.288Z,97562.56
2023-02-25T03:10:37.813Z,97566.41
2023-02-25T03:13:04.556Z,97576.25
2023-02-25T03:15:32.441Z,97578.09
2023-02-25T03:18:05.585Z,97572.75
2023-02-25T03:20:42.455Z,97571.69
2023-02-25T03:23:15.315Z,97579.13
2023-02-25T03:25:49.741Z,97583.88
2023-02-25T03:28:36.519Z,97584.03
2023-02-25T03:31:17.144Z,97585.47
2023-02-25T03:33:49.745Z,97582.38
2023-02-25T03:36:22.354Z,97583.75
2023-02-25T03:38:54.234Z,97592.09
2023-02-25T03:41:25.339Z,97589.28
2023-02-25T03:43:56.776Z,97587.78
2023-02-25T03:46:24.227Z,97588.16
2023-02-25T03:48:52.519Z,97590.19
2023-02-25T03:51:23.729Z,97594.75
2023-02-25T03:53:50.265Z,97597.16
2023-02-25T03:56:17.003Z,97591.31
2023-02-25T03:58:44.325Z,97594.56
2023-02-25T04:01:27.889Z,97591.66
2023-02-25T04:03:54.394Z,97601.50
2023-02-25T04:06:23.217Z,97598.31
2023-02-25T04:08:50.010Z,97614.41
2023-02-25T04:11:16.777Z,97605.25
2023-02-25T04:13:43.274Z,97611.09
2023-02-25T04:16:09.905Z,97611.66
2023-02-25T04:18:36.516Z,97612.16
2023-02-25T04:21:05.801Z,97622.38
2023-02-25T04:23:32.873Z,97627.13
2023-02-25T04:25:59.365Z,97627.22
2023-02-25T04:28:25.885Z,97629.91
2023-02-25T04:30:52.482Z,97629.72
2023-02-25T04:33:19.020Z,97625.84
2023-02-25T04:35:45.558Z,97625.63
2023-02-25T04:38:12.068Z,97629.00
2023-02-25T04:40:38.523Z,97620.97
2023-02-25T04:43:05.083Z,97622.94
2023-02-25T04:45:31.571Z,97625.84
2023-02-25T04:47:58.119Z,97623.34
2023-02-25T04:50:25.402Z,97609.25
2023-02-25T04:52:52.259Z,97613.44
2023-02-25T04:55:18.846Z,97612.41
2023-02-25T04:57:45.411Z,97611.75
2023-02-25T05:00:29.735Z,97616.47
2023-02-25T05:02:56.381Z,97626.47
2023-02-25T05:05:22.849Z,97624.00
2023-02-25T05:07:49.407Z,97622.13
2023-02-25T05:10:16.141Z,97617.00
2023-02-25T05:12:42.711Z,97621.22
2023-02-25T05:15:10.658Z,97622.03
2023-02-25T05:17:37.410Z,97620.84
2023-02-25T05:20:11.754Z,97624.88
2023-02-25T05:22:39.373Z,97622.44
2023-02-25T05:25:07.500Z,97608.28
2023-02-25T05:27:34.522Z,97604.00
2023-02-25T05:30:01.661Z,97594.41
2023-02-25T05:32:30.878Z,97616.38
2023-02-25T05:34:58.101Z,97605.78
2023-02-25T05:37:24.921Z,97613.22
2023-02-25T05:39:51.444Z,97609.97
2023-02-25T05:42:17.893Z,97609.34
2023-02-25T05:44:44.375Z,97600.91
2023-02-25T05:47:10.907Z,97607.38
2023-02-25T05:49:37.428Z,97596.69
2023-02-25T05:52:03.879Z,97597.41
2023-02-25T05:54:30.409Z,97598.31
2023-02-25T05:56:56.918Z,97603.31
2023-02-25T05:59:23.436Z,97599.13
2023-02-25T06:01:49.967Z,97606.75
2023-02-25T06:04:16.490Z,97603.00
2023-02-25T06:06:43.015Z,97599.69
2023-02-25T06:09:10.317Z,97608.84
2023-02-25T06:11:37.028Z,97603.00
2023-02-25T06:14:03.585Z,97593.59
2023-02-25T06:16:32.386Z,97589.91
2023-02-25T06:19:01.146Z,97587.84
2023-02-25T06:21:27.885Z,97589.63
2023-02-25T06:23:54.501Z,97604.16
2023-02-25T06:26:21.974Z,97603.41
2023-02-25T06:28:48.709Z,97612.41
2023-02-25T06:31:17.528Z,97615.78
2023-02-25T06:33:45.612Z,97620.66
2023-02-25T06:36:12.850Z,97618.56
2023-02-25T06:38:40.098Z,97624.47
2023-02-25T06:41:15.490Z,97620.16
2023-02-25T06:43:42.334Z,97633.28
2023-02-25T06:46:12.329Z,97635.56
2023-02-25T06:48:39.152Z,97638.81
2023-02-25T06:51:09.387Z,97650.47
2023-02-25T06:53:40.723Z,97652.16
2023-02-25T06:56:11.121Z,97652.22
2023-02-25T06:58:38.140Z,97651.44
2023-02-25T07:01:09.256Z,97655.56
2023-02-25T07:03:36.126Z,97650.03
2023-02-25T07:06:02.807Z,97661.91
2023-02-25T07:08:29.312Z,97657.25
2023-02-25T07:10:55.770Z,97659.72
2023-02-25T07:13:22.367Z,97655.97
2023-02-25T07:15:48.889Z,97658.00
2023-02-25T07:18:16.215Z,97653.56
2023-02-25T07:20:42.965Z,97661.31
2023-02-25T07:23:09.494Z,97659.38
2023-02-25T07:25:38.538Z,97663.22
2023-02-25T07:28:05.058Z,97655.34
2023-02-25T07:30:31.525Z,97662.63
2023-02-25T07:32:58.140Z,97653.56
2023-02-25T07:35:24.803Z,97658.41
2023-02-25T07:37:51.656Z,97663.09
2023-02-25T07:40:18.270Z,97669.28
2023-02-25T07:42:44.762Z,97665.88
2023-02-25T07:45:12.430Z,97670.06
2023-02-25T07:47:39.136Z,97664.25
2023-02-25T07:50:08.004Z,97666.97
2023-02-25T07:52:34.566Z,97677.19
2023-02-25T07:55:01.063Z,97673.81
2023-02-25T07:57:28.795Z,97671.78
2023-02-25T07:59:55.309Z,97660.19
2023-02-25T08:02:21.940Z,97655.00
2023-02-25T08:04:48.502Z,97655.31
2023-02-25T08:07:15.051Z,97653.47
2023-02-25T08:09:41.877Z,97656.16
2023-02-25T08:12:08.875Z,97667.50
2023-02-25T08:14:37.500Z,97659.56
2023-02-25T08:17:04.007Z,97654.50
2023-02-25T08:19:30.546Z,97657.91
2023-02-25T08:21:57.033Z,97659.38
2023-02-25T08:24:23.599Z,97662.22
2023-02-25T08:26:50.136Z,97660.19
2023-02-25T08:29:16.753Z,97657.66
2023-02-25T08:31:43.294Z,97651.19
2023-02-25T08:34:10.638Z,97651.44
2023-02-25T08:36:37.207Z,97658.66
2023-02-25T08:39:03.786Z,97651.13
2023-02-25T08:41:30.701Z,97656.94
2023-02-25T08:44:00.346Z,97648.13
2023-02-25T08:46:29.186Z,97650.88
2023-02-25T08:48:56.198Z,97654.69
2023-02-25T08:51:26.585Z,97657.44
2023-02-25T08:53:53.250Z,97649.63
2023-02-25T08:56:19.801Z,97649.13
2023-02-25T08:58:46.311Z,97650.94
2023-02-25T09:01:18.164Z,97650.13
2023-02-25T09:03:53.528Z,97654.44
2023-02-25T09:06:27.933Z,97652.16
2023-02-25T09:08:56.228Z,97651.16
2023-02-25T09:11:24.584Z,97647.63
2023-02-25T09:13:52.896Z,97649.88
2023-02-25T09:16:20.154Z,97642.03
2023-02-25T09:18:48.450Z,97639.78
2023-02-25T09:21:15.509Z,97645.66
2023-02-25T09:23:42.629Z,97649.91
2023-02-25T09:26:09.584Z,97653.72
2023-02-25T09:28:36.757Z,97644.59
2023-02-25T09:31:03.889Z,97642.88
2023-02-25T09:33:32.352Z,97642.88
2023-02-25T09:36:14.320Z,97649.50
2023-02-25T09:38:44.354Z,97646.75
2023-02-25T09:41:49.614Z,97644.97
2023-02-25T09:44:33.029Z,97649.97
2023-02-25T09:47:14.753Z,97656.72
2023-02-25T09:49:55.997Z,97658.16
2023-02-25T09:52:35.853Z,97655.13
2023-02-25T09:55:23.060Z,97660.81
2023-02-25T09:58:14.025Z,97658.16
2023-02-25T10:00:50.524Z,97647.16
2023-02-25T10:03:44.864Z,97637.25
2023-02-25T10:06:20.540Z,97647.84
2023-02-25T10:09:09.186Z,97657.06
2023-02-25T10:12:13.268Z,97643.97
2023-02-25T10:15:21.274Z,97641.41
2023-02-25T10:17:47.724Z,97642.75
2023-02-25T10:20:43.276Z,97644.28
2023-02-25T10:23:41.928Z,97637.13
2023-02-25T10:26:20.775Z,97645.66
2023-02-25T10:29:13.195Z,97643.78
2023-02-25T10:31:45.669Z,97655.19
2023-02-25T10:34:21.309Z,97660.19
2023-02-25T10:36:54.307Z,97656.53
2023-02-25T10:39:21.045Z,97657.41
2023-02-25T10:41:49.319Z,97655.53
2023-02-25T10:44:16.214Z,97655.31
2023-02-25T10:46:50.046Z,97650.16
2023-02-25T10:49:26.544Z,97655.41
2023-02-25T10:52:01.067Z,97654.97
2023-02-25T10:54:27.612Z,97658.38
2023-02-25T10:56:55.114Z,97644.88
2023-02-25T10:59:31.246Z,97644.59
2023-02-25T11:02:00.126Z,97652.84
2023-02-25T11:04:37.541Z,97650.13
2023-02-25T11:07:24.022Z,97649.84
2023-02-25T11:10:17.099Z,97653.69
2023-02-25T11:12:55.158Z,97652.91
2023-02-25T11:15:46.051Z,97635.00
2023-02-25T11:18:31.902Z,97643.81
2023-02-25T11:21:01.882Z,97642.19
2023-02-25T11:23:34.271Z,97646.97
2023-02-25T11:26:01.566Z,97645.41
2023-02-25T11:28:38.571Z,97641.88
2023-02-25T11:31:27.768Z,97628.56
2023-02-25T11:33:59.451Z,97633.06
2023-02-25T11:36:33.536Z,97626.84
2023-02-25T11:39:18.000Z,97626.56
2023-02-25T11:41:46.664Z,97614.28
2023-02-25T11:44:20.781Z,97618.44
2023-02-25T11:47:14.344Z,97616.56
2023-02-25T11:49:42.587Z,97616.53
2023-02-25T11:52:36.002Z,97617.44
2023-02-25T11:55:39.185Z,97604.88
2023-02-25T11:58:44.073Z,97608.63
2023-02-25T12:01:24.797Z,97611.53
2023-02-25T12:03:57.325Z,97615.84
2023-02-25T12:06:56.846Z,97601.47
2023-02-25T12:09:59.796Z,97606.63
2023-02-25T12:13:11.489Z,97599.97
